sensor_id;sensor_type;location;lat;lon;timestamp;P1;durP1;ratioP1;P2;durP2;ratioP2
9819;SDS011;4949;48.482;9.206;2022-07-29T00:04:07;6.17;;;5.67;;
9819;SDS011;4949;48.482;9.206;2022-07-29T00:09:07;6.60;;;6.10;;
9819;SDS011;4949;48.482;9.206;2022-07-29T00:14:08;6.33;;;5.90;;
9819;SDS011;4949;48.482;9.206;2022-07-29T00:19:08;7.00;;;6.40;;
9819;SDS011;4949;48.482;9.206;2022-07-29T00:24:11;6.27;;;5.77;;
9819;SDS011;4949;48.482;9.206;2022-07-29T00:29:12;6.17;;;5.57;;
9819;SDS011;4949;48.482;9.206;2022-07-29T00:34:12;5.70;;;5.17;;
9819;SDS011;4949;48.482;9.206;2022-07-29T00:39:31;5.00;;;4.67;;
9819;SDS011;4949;48.482;9.206;2022-07-29T00:44:35;5.30;;;4.90;;
9819;SDS011;4949;48.482;9.206;2022-07-29T00:49:37;5.50;;;5.10;;
9819;SDS011;4949;48.482;9.206;2022-07-29T00:54:39;5.53;;;5.13;;
9819;SDS011;4949;48.482;9.206;2022-07-29T00:59:42;5.83;;;5.20;;
9819;SDS011;4949;48.482;9.206;2022-07-29T01:04:42;5.07;;;4.73;;
9819;SDS011;4949;48.482;9.206;2022-07-29T01:09:42;6.20;;;5.60;;
9819;SDS011;4949;48.482;9.206;2022-07-29T01:14:44;5.60;;;5.17;;
9819;SDS011;4949;48.482;9.206;2022-07-29T01:30:31;6.43;;;5.93;;
9819;SDS011;4949;48.482;9.206;2022-07-29T01:35:36;6.07;;;5.57;;
9819;SDS011;4949;48.482;9.206;2022-07-29T01:45:56;6.90;;;6.20;;
9819;SDS011;4949;48.482;9.206;2022-07-29T01:56:05;7.10;;;6.60;;
9819;SDS011;4949;48.482;9.206;2022-07-29T02:01:08;6.93;;;6.43;;
9819;SDS011;4949;48.482;9.206;2022-07-29T02:06:09;7.37;;;6.77;;
9819;SDS011;4949;48.482;9.206;2022-07-29T02:11:13;6.60;;;6.07;;
9819;SDS011;4949;48.482;9.206;2022-07-29T02:16:16;6.60;;;6.10;;
9819;SDS011;4949;48.482;9.206;2022-07-29T02:21:21;7.83;;;7.23;;
9819;SDS011;4949;48.482;9.206;2022-07-29T02:26:24;8.10;;;7.30;;
9819;SDS011;4949;48.482;9.206;2022-07-29T02:31:26;8.10;;;7.50;;
9819;SDS011;4949;48.482;9.206;2022-07-29T02:36:33;8.03;;;7.30;;
9819;SDS011;4949;48.482;9.206;2022-07-29T02:56:55;7.70;;;7.10;;
9819;SDS011;4949;48.482;9.206;2022-07-29T03:01:58;8.33;;;7.70;;
9819;SDS011;4949;48.482;9.206;2022-07-29T03:07:01;7.30;;;6.80;;
9819;SDS011;4949;48.482;9.206;2022-07-29T03:12:02;7.17;;;6.57;;
9819;SDS011;4949;48.482;9.206;2022-07-29T03:17:04;7.20;;;6.60;;
9819;SDS011;4949;48.482;9.206;2022-07-29T03:22:04;6.73;;;6.23;;
9819;SDS011;4949;48.482;9.206;2022-07-29T03:27:09;7.10;;;6.50;;
9819;SDS011;4949;48.482;9.206;2022-07-29T03:32:12;7.10;;;6.20;;
9819;SDS011;4949;48.482;9.206;2022-07-29T03:37:12;6.97;;;6.30;;
9819;SDS011;4949;48.482;9.206;2022-07-29T03:42:15;7.70;;;6.90;;
9819;SDS011;4949;48.482;9.206;2022-07-29T03:47:18;8.10;;;7.30;;
9819;SDS011;4949;48.482;9.206;2022-07-29T03:52:22;6.83;;;6.20;;
9819;SDS011;4949;48.482;9.206;2022-07-29T03:57:26;7.40;;;6.70;;
9819;SDS011;4949;48.482;9.206;2022-07-29T04:02:27;7.10;;;6.60;;
9819;SDS011;4949;48.482;9.206;2022-07-29T04:07:28;7.40;;;6.80;;
9819;SDS011;4949;48.482;9.206;2022-07-29T04:12:29;7.10;;;6.40;;
9819;SDS011;4949;48.482;9.206;2022-07-29T04:17:29;7.77;;;6.93;;
9819;SDS011;4949;48.482;9.206;2022-07-29T04:22:32;7.37;;;6.73;;
9819;SDS011;4949;48.482;9.206;2022-07-29T04:27:34;8.63;;;8.00;;
9819;SDS011;4949;48.482;9.206;2022-07-29T04:32:35;12.30;;;11.17;;
9819;SDS011;4949;48.482;9.206;2022-07-29T04:37:35;9.30;;;8.60;;
9819;SDS011;4949;48.482;9.206;2022-07-29T04:42:38;7.90;;;7.23;;
9819;SDS011;4949;48.482;9.206;2022-07-29T04:47:38;9.60;;;7.20;;
9819;SDS011;4949;48.482;9.206;2022-07-29T04:52:39;7.33;;;6.83;;
9819;SDS011;4949;48.482;9.206;2022-07-29T04:57:39;7.30;;;6.60;;
9819;SDS011;4949;48.482;9.206;2022-07-29T05:02:44;8.70;;;8.00;;
9819;SDS011;4949;48.482;9.206;2022-07-29T05:07:44;9.27;;;7.63;;
9819;SDS011;4949;48.482;9.206;2022-07-29T05:12:45;10.40;;;9.50;;
9819;SDS011;4949;48.482;9.206;2022-07-29T05:17:45;12.50;;;11.37;;
9819;SDS011;4949;48.482;9.206;2022-07-29T05:22:48;11.20;;;10.40;;
9819;SDS011;4949;48.482;9.206;2022-07-29T05:27:50;10.47;;;9.57;;
9819;SDS011;4949;48.482;9.206;2022-07-29T05:32:53;9.47;;;8.57;;
9819;SDS011;4949;48.482;9.206;2022-07-29T05:37:56;9.63;;;8.93;;
9819;SDS011;4949;48.482;9.206;2022-07-29T05:42:56;8.73;;;8.03;;
9819;SDS011;4949;48.482;9.206;2022-07-29T05:47:57;8.90;;;7.97;;
9819;SDS011;4949;48.482;9.206;2022-07-29T05:52:57;9.40;;;8.60;;
9819;SDS011;4949;48.482;9.206;2022-07-29T05:58:02;8.40;;;7.70;;
9819;SDS011;4949;48.482;9.206;2022-07-29T06:03:02;9.73;;;8.90;;
9819;SDS011;4949;48.482;9.206;2022-07-29T06:08:07;8.40;;;7.70;;
9819;SDS011;4949;48.482;9.206;2022-07-29T06:13:12;8.13;;;7.53;;
9819;SDS011;4949;48.482;9.206;2022-07-29T06:18:15;7.87;;;7.27;;
9819;SDS011;4949;48.482;9.206;2022-07-29T06:23:20;8.40;;;7.70;;
9819;SDS011;4949;48.482;9.206;2022-07-29T06:28:23;9.10;;;8.40;;
9819;SDS011;4949;48.482;9.206;2022-07-29T06:33:24;7.40;;;6.80;;
9819;SDS011;4949;48.482;9.206;2022-07-29T06:38:24;8.10;;;7.40;;
9819;SDS011;4949;48.482;9.206;2022-07-29T06:43:28;7.77;;;6.97;;
9819;SDS011;4949;48.482;9.206;2022-07-29T06:48:35;7.53;;;6.83;;
9819;SDS011;4949;48.482;9.206;2022-07-29T06:53:38;6.40;;;5.73;;
9819;SDS011;4949;48.482;9.206;2022-07-29T06:58:39;6.00;;;5.50;;
9819;SDS011;4949;48.482;9.206;2022-07-29T07:03:44;6.60;;;5.67;;
9819;SDS011;4949;48.482;9.206;2022-07-29T07:08:45;5.33;;;4.93;;
9819;SDS011;4949;48.482;9.206;2022-07-29T07:13:50;9.50;;;5.80;;
9819;SDS011;4949;48.482;9.206;2022-07-29T07:18:50;4.97;;;4.47;;
9819;SDS011;4949;48.482;9.206;2022-07-29T07:23:51;4.83;;;4.53;;
9819;SDS011;4949;48.482;9.206;2022-07-29T07:28:51;5.63;;;5.10;;
9819;SDS011;4949;48.482;9.206;2022-07-29T07:33:54;5.60;;;5.20;;
9819;SDS011;4949;48.482;9.206;2022-07-29T07:38:54;5.00;;;4.70;;
9819;SDS011;4949;48.482;9.206;2022-07-29T07:43:54;5.50;;;5.03;;
9819;SDS011;4949;48.482;9.206;2022-07-29T07:48:55;5.30;;;4.90;;
9819;SDS011;4949;48.482;9.206;2022-07-29T07:53:55;5.50;;;4.70;;
9819;SDS011;4949;48.482;9.206;2022-07-29T07:58:58;5.80;;;5.10;;
9819;SDS011;4949;48.482;9.206;2022-07-29T08:03:58;6.90;;;5.23;;
9819;SDS011;4949;48.482;9.206;2022-07-29T08:08:59;6.30;;;4.73;;
9819;SDS011;4949;48.482;9.206;2022-07-29T08:13:59;6.13;;;5.63;;
9819;SDS011;4949;48.482;9.206;2022-07-29T08:19:01;5.87;;;5.30;;
9819;SDS011;4949;48.482;9.206;2022-07-29T08:24:01;5.80;;;5.30;;
9819;SDS011;4949;48.482;9.206;2022-07-29T08:29:23;5.40;;;5.00;;
9819;SDS011;4949;48.482;9.206;2022-07-29T08:34:23;4.90;;;4.50;;
9819;SDS011;4949;48.482;9.206;2022-07-29T08:39:26;6.03;;;5.53;;
9819;SDS011;4949;48.482;9.206;2022-07-29T08:44:26;5.00;;;4.50;;
9819;SDS011;4949;48.482;9.206;2022-07-29T08:49:29;6.70;;;4.93;;
9819;SDS011;4949;48.482;9.206;2022-07-29T08:54:29;5.10;;;4.70;;
9819;SDS011;4949;48.482;9.206;2022-07-29T08:59:30;4.93;;;4.50;;
9819;SDS011;4949;48.482;9.206;2022-07-29T09:04:30;4.87;;;4.50;;
9819;SDS011;4949;48.482;9.206;2022-07-29T09:09:34;5.57;;;5.07;;
9819;SDS011;4949;48.482;9.206;2022-07-29T09:14:35;5.50;;;5.00;;
9819;SDS011;4949;48.482;9.206;2022-07-29T09:19:36;6.27;;;5.00;;
9819;SDS011;4949;48.482;9.206;2022-07-29T09:29:43;5.60;;;5.20;;
9819;SDS011;4949;48.482;9.206;2022-07-29T09:34:46;5.70;;;5.10;;
9819;SDS011;4949;48.482;9.206;2022-07-29T09:39:46;4.93;;;4.63;;
9819;SDS011;4949;48.482;9.206;2022-07-29T09:44:47;7.23;;;5.87;;
9819;SDS011;4949;48.482;9.206;2022-07-29T09:49:55;5.80;;;5.30;;
9819;SDS011;4949;48.482;9.206;2022-07-29T09:55:05;4.60;;;4.20;;
9819;SDS011;4949;48.482;9.206;2022-07-29T10:05:18;5.50;;;5.10;;
9819;SDS011;4949;48.482;9.206;2022-07-29T10:10:24;5.80;;;5.40;;
9819;SDS011;4949;48.482;9.206;2022-07-29T10:15:26;7.93;;;6.00;;
9819;SDS011;4949;48.482;9.206;2022-07-29T10:20:28;7.93;;;5.90;;
9819;SDS011;4949;48.482;9.206;2022-07-29T10:25:35;6.57;;;5.60;;
9819;SDS011;4949;48.482;9.206;2022-07-29T10:30:35;7.63;;;5.60;;
9819;SDS011;4949;48.482;9.206;2022-07-29T10:46:27;6.27;;;5.67;;
9819;SDS011;4949;48.482;9.206;2022-07-29T10:51:50;6.30;;;5.80;;
9819;SDS011;4949;48.482;9.206;2022-07-29T11:07:37;6.03;;;5.43;;
9819;SDS011;4949;48.482;9.206;2022-07-29T11:22:56;5.60;;;5.10;;
9819;SDS011;4949;48.482;9.206;2022-07-29T11:28:08;6.47;;;5.17;;
9819;SDS011;4949;48.482;9.206;2022-07-29T11:33:33;6.07;;;5.10;;
9819;SDS011;4949;48.482;9.206;2022-07-29T11:38:33;5.43;;;4.73;;
9819;SDS011;4949;48.482;9.206;2022-07-29T11:43:48;6.97;;;5.50;;
9819;SDS011;4949;48.482;9.206;2022-07-29T11:48:52;7.60;;;5.70;;
9819;SDS011;4949;48.482;9.206;2022-07-29T11:53:53;5.70;;;5.20;;
9819;SDS011;4949;48.482;9.206;2022-07-29T11:59:06;5.87;;;5.47;;
9819;SDS011;4949;48.482;9.206;2022-07-29T12:04:11;6.20;;;5.80;;
9819;SDS011;4949;48.482;9.206;2022-07-29T12:09:11;5.87;;;4.70;;
9819;SDS011;4949;48.482;9.206;2022-07-29T12:14:24;6.37;;;5.87;;
9819;SDS011;4949;48.482;9.206;2022-07-29T12:19:41;7.70;;;6.23;;
9819;SDS011;4949;48.482;9.206;2022-07-29T12:24:47;7.17;;;6.50;;
9819;SDS011;4949;48.482;9.206;2022-07-29T12:29:57;6.43;;;5.90;;
9819;SDS011;4949;48.482;9.206;2022-07-29T12:35:00;5.90;;;5.40;;
9819;SDS011;4949;48.482;9.206;2022-07-29T12:40:08;8.50;;;7.17;;
9819;SDS011;4949;48.482;9.206;2022-07-29T12:45:11;7.13;;;6.40;;
9819;SDS011;4949;48.482;9.206;2022-07-29T12:50:12;8.00;;;7.30;;
9819;SDS011;4949;48.482;9.206;2022-07-29T13:00:44;7.90;;;7.20;;
9819;SDS011;4949;48.482;9.206;2022-07-29T13:05:45;8.30;;;7.50;;
9819;SDS011;4949;48.482;9.206;2022-07-29T13:10:50;8.17;;;7.57;;
9819;SDS011;4949;48.482;9.206;2022-07-29T13:16:04;8.00;;;7.40;;
9819;SDS011;4949;48.482;9.206;2022-07-29T13:21:12;7.10;;;6.60;;
9819;SDS011;4949;48.482;9.206;2022-07-29T13:26:16;7.63;;;6.90;;
9819;SDS011;4949;48.482;9.206;2022-07-29T13:31:19;7.50;;;6.90;;
9819;SDS011;4949;48.482;9.206;2022-07-29T13:36:20;8.03;;;6.87;;
9819;SDS011;4949;48.482;9.206;2022-07-29T13:41:20;7.10;;;6.60;;
9819;SDS011;4949;48.482;9.206;2022-07-29T13:46:23;7.90;;;7.10;;
9819;SDS011;4949;48.482;9.206;2022-07-29T13:51:25;6.70;;;6.10;;
9819;SDS011;4949;48.482;9.206;2022-07-29T13:56:30;5.60;;;5.20;;
9819;SDS011;4949;48.482;9.206;2022-07-29T14:01:35;6.60;;;5.97;;
9819;SDS011;4949;48.482;9.206;2022-07-29T14:06:41;5.27;;;4.87;;
9819;SDS011;4949;48.482;9.206;2022-07-29T14:11:41;5.40;;;5.00;;
9819;SDS011;4949;48.482;9.206;2022-07-29T14:16:45;5.47;;;5.07;;
9819;SDS011;4949;48.482;9.206;2022-07-29T14:21:46;5.13;;;4.67;;
9819;SDS011;4949;48.482;9.206;2022-07-29T14:26:48;5.20;;;4.80;;
9819;SDS011;4949;48.482;9.206;2022-07-29T14:31:51;6.10;;;4.70;;
9819;SDS011;4949;48.482;9.206;2022-07-29T14:36:57;5.00;;;4.60;;
9819;SDS011;4949;48.482;9.206;2022-07-29T14:41:57;5.43;;;5.10;;
9819;SDS011;4949;48.482;9.206;2022-07-29T14:46:59;5.47;;;5.13;;
9819;SDS011;4949;48.482;9.206;2022-07-29T14:52:00;5.90;;;5.40;;
9819;SDS011;4949;48.482;9.206;2022-07-29T14:57:05;6.37;;;5.87;;
9819;SDS011;4949;48.482;9.206;2022-07-29T15:02:07;6.50;;;5.47;;
9819;SDS011;4949;48.482;9.206;2022-07-29T15:07:08;5.50;;;5.10;;
9819;SDS011;4949;48.482;9.206;2022-07-29T15:12:13;5.20;;;4.70;;
9819;SDS011;4949;48.482;9.206;2022-07-29T15:17:15;12.03;;;10.83;;
9819;SDS011;4949;48.482;9.206;2022-07-29T15:22:18;7.30;;;6.70;;
9819;SDS011;4949;48.482;9.206;2022-07-29T15:27:26;5.23;;;4.70;;
9819;SDS011;4949;48.482;9.206;2022-07-29T15:32:31;5.57;;;5.17;;
9819;SDS011;4949;48.482;9.206;2022-07-29T15:37:31;7.30;;;6.60;;
9819;SDS011;4949;48.482;9.206;2022-07-29T15:42:35;5.50;;;5.20;;
9819;SDS011;4949;48.482;9.206;2022-07-29T15:47:36;5.77;;;5.37;;
9819;SDS011;4949;48.482;9.206;2022-07-29T15:52:39;7.00;;;6.30;;
9819;SDS011;4949;48.482;9.206;2022-07-29T15:57:39;6.47;;;5.97;;
9819;SDS011;4949;48.482;9.206;2022-07-29T16:02:47;6.80;;;6.30;;
9819;SDS011;4949;48.482;9.206;2022-07-29T16:07:47;6.30;;;5.80;;
9819;SDS011;4949;48.482;9.206;2022-07-29T16:12:53;5.93;;;5.33;;
9819;SDS011;4949;48.482;9.206;2022-07-29T16:17:54;6.40;;;5.90;;
9819;SDS011;4949;48.482;9.206;2022-07-29T16:22:59;6.90;;;6.30;;
9819;SDS011;4949;48.482;9.206;2022-07-29T16:28:00;7.40;;;6.90;;
9819;SDS011;4949;48.482;9.206;2022-07-29T16:33:01;7.33;;;6.13;;
9819;SDS011;4949;48.482;9.206;2022-07-29T16:38:04;6.20;;;5.70;;
9819;SDS011;4949;48.482;9.206;2022-07-29T16:43:05;5.63;;;5.10;;
9819;SDS011;4949;48.482;9.206;2022-07-29T16:48:06;6.07;;;5.60;;
9819;SDS011;4949;48.482;9.206;2022-07-29T16:53:06;5.77;;;5.23;;
9819;SDS011;4949;48.482;9.206;2022-07-29T16:58:10;5.53;;;5.13;;
9819;SDS011;4949;48.482;9.206;2022-07-29T17:03:11;6.20;;;5.60;;
9819;SDS011;4949;48.482;9.206;2022-07-29T17:08:11;5.93;;;5.33;;
9819;SDS011;4949;48.482;9.206;2022-07-29T17:13:14;8.00;;;7.40;;
9819;SDS011;4949;48.482;9.206;2022-07-29T17:18:15;6.77;;;6.27;;
9819;SDS011;4949;48.482;9.206;2022-07-29T17:23:17;6.57;;;6.03;;
9819;SDS011;4949;48.482;9.206;2022-07-29T17:28:20;7.23;;;6.63;;
9819;SDS011;4949;48.482;9.206;2022-07-29T17:33:20;5.90;;;5.40;;
9819;SDS011;4949;48.482;9.206;2022-07-29T17:38:26;7.40;;;5.17;;
9819;SDS011;4949;48.482;9.206;2022-07-29T17:43:26;5.60;;;5.10;;
9819;SDS011;4949;48.482;9.206;2022-07-29T17:48:32;8.60;;;5.33;;
9819;SDS011;4949;48.482;9.206;2022-07-29T17:53:33;5.20;;;4.70;;
9819;SDS011;4949;48.482;9.206;2022-07-29T17:58:39;5.20;;;4.80;;
9819;SDS011;4949;48.482;9.206;2022-07-29T18:03:42;5.50;;;5.10;;
9819;SDS011;4949;48.482;9.206;2022-07-29T18:08:43;7.10;;;5.80;;
9819;SDS011;4949;48.482;9.206;2022-07-29T18:13:46;5.33;;;4.70;;
9819;SDS011;4949;48.482;9.206;2022-07-29T18:18:51;5.17;;;4.80;;
9819;SDS011;4949;48.482;9.206;2022-07-29T18:23:51;6.40;;;4.53;;
9819;SDS011;4949;48.482;9.206;2022-07-29T18:28:54;6.20;;;4.40;;
9819;SDS011;4949;48.482;9.206;2022-07-29T18:33:54;4.73;;;4.43;;
9819;SDS011;4949;48.482;9.206;2022-07-29T18:38:55;5.33;;;4.67;;
9819;SDS011;4949;48.482;9.206;2022-07-29T18:43:57;5.50;;;5.03;;
9819;SDS011;4949;48.482;9.206;2022-07-29T18:49:00;3.83;;;3.53;;
9819;SDS011;4949;48.482;9.206;2022-07-29T18:54:03;4.60;;;4.20;;
9819;SDS011;4949;48.482;9.206;2022-07-29T18:59:07;4.20;;;3.90;;
9819;SDS011;4949;48.482;9.206;2022-07-29T19:04:07;7.17;;;4.53;;
9819;SDS011;4949;48.482;9.206;2022-07-29T19:09:10;4.67;;;4.27;;
9819;SDS011;4949;48.482;9.206;2022-07-29T19:14:10;4.50;;;4.10;;
9819;SDS011;4949;48.482;9.206;2022-07-29T19:19:11;4.20;;;3.90;;
9819;SDS011;4949;48.482;9.206;2022-07-29T19:24:15;5.77;;;5.27;;
9819;SDS011;4949;48.482;9.206;2022-07-29T19:29:18;7.73;;;7.13;;
9819;SDS011;4949;48.482;9.206;2022-07-29T19:34:24;8.70;;;8.00;;
9819;SDS011;4949;48.482;9.206;2022-07-29T19:39:30;5.97;;;4.67;;
9819;SDS011;4949;48.482;9.206;2022-07-29T19:44:33;5.47;;;4.97;;
9819;SDS011;4949;48.482;9.206;2022-07-29T19:49:33;5.53;;;4.93;;
9819;SDS011;4949;48.482;9.206;2022-07-29T19:54:38;5.10;;;4.60;;
9819;SDS011;4949;48.482;9.206;2022-07-29T19:59:40;4.60;;;4.30;;
9819;SDS011;4949;48.482;9.206;2022-07-29T20:04:41;5.50;;;5.00;;
9819;SDS011;4949;48.482;9.206;2022-07-29T20:09:43;5.63;;;5.23;;
9819;SDS011;4949;48.482;9.206;2022-07-29T20:14:46;5.30;;;4.80;;
9819;SDS011;4949;48.482;9.206;2022-07-29T20:19:49;6.37;;;5.87;;
9819;SDS011;4949;48.482;9.206;2022-07-29T20:24:52;6.70;;;5.10;;
9819;SDS011;4949;48.482;9.206;2022-07-29T20:29:56;5.90;;;5.40;;
9819;SDS011;4949;48.482;9.206;2022-07-29T20:34:59;6.27;;;5.70;;
9819;SDS011;4949;48.482;9.206;2022-07-29T20:40:01;6.13;;;5.50;;
9819;SDS011;4949;48.482;9.206;2022-07-29T20:45:02;6.50;;;5.20;;
9819;SDS011;4949;48.482;9.206;2022-07-29T20:50:03;8.03;;;5.70;;
9819;SDS011;4949;48.482;9.206;2022-07-29T20:55:04;7.07;;;5.73;;
9819;SDS011;4949;48.482;9.206;2022-07-29T21:00:06;6.10;;;5.70;;
9819;SDS011;4949;48.482;9.206;2022-07-29T21:05:09;7.63;;;6.93;;
9819;SDS011;4949;48.482;9.206;2022-07-29T21:10:12;6.53;;;5.93;;
9819;SDS011;4949;48.482;9.206;2022-07-29T21:15:19;5.13;;;4.80;;
9819;SDS011;4949;48.482;9.206;2022-07-29T21:20:20;5.63;;;4.60;;
9819;SDS011;4949;48.482;9.206;2022-07-29T21:25:21;5.13;;;4.73;;
9819;SDS011;4949;48.482;9.206;2022-07-29T21:30:21;5.80;;;4.43;;
9819;SDS011;4949;48.482;9.206;2022-07-29T21:35:24;4.93;;;4.53;;
9819;SDS011;4949;48.482;9.206;2022-07-29T21:40:24;4.93;;;4.53;;
9819;SDS011;4949;48.482;9.206;2022-07-29T21:45:25;4.30;;;4.00;;
9819;SDS011;4949;48.482;9.206;2022-07-29T21:50:25;4.63;;;4.33;;
9819;SDS011;4949;48.482;9.206;2022-07-29T21:55:29;4.80;;;4.40;;
9819;SDS011;4949;48.482;9.206;2022-07-29T22:00:29;5.00;;;4.57;;
9819;SDS011;4949;48.482;9.206;2022-07-29T22:05:32;6.30;;;5.80;;
9819;SDS011;4949;48.482;9.206;2022-07-29T22:10:37;5.40;;;4.70;;
9819;SDS011;4949;48.482;9.206;2022-07-29T22:15:40;4.80;;;4.20;;
9819;SDS011;4949;48.482;9.206;2022-07-29T22:20:40;4.93;;;4.53;;
9819;SDS011;4949;48.482;9.206;2022-07-29T22:25:41;5.33;;;4.93;;
9819;SDS011;4949;48.482;9.206;2022-07-29T22:30:41;4.77;;;4.37;;
9819;SDS011;4949;48.482;9.206;2022-07-29T22:35:44;5.10;;;4.70;;
9819;SDS011;4949;48.482;9.206;2022-07-29T22:40:46;4.40;;;4.00;;
9819;SDS011;4949;48.482;9.206;2022-07-29T22:45:48;5.10;;;4.63;;
9819;SDS011;4949;48.482;9.206;2022-07-29T22:50:49;7.00;;;5.90;;
9819;SDS011;4949;48.482;9.206;2022-07-29T22:55:49;5.20;;;4.77;;
9819;SDS011;4949;48.482;9.206;2022-07-29T23:00:50;5.43;;;4.97;;
9819;SDS011;4949;48.482;9.206;2022-07-29T23:05:50;5.33;;;4.93;;
9819;SDS011;4949;48.482;9.206;2022-07-29T23:10:53;6.00;;;5.50;;
9819;SDS011;4949;48.482;9.206;2022-07-29T23:15:55;5.20;;;4.90;;
9819;SDS011;4949;48.482;9.206;2022-07-29T23:20:58;5.30;;;4.90;;
9819;SDS011;4949;48.482;9.206;2022-07-29T23:26:01;5.83;;;5.33;;
9819;SDS011;4949;48.482;9.206;2022-07-29T23:31:01;7.77;;;5.00;;
9819;SDS011;4949;48.482;9.206;2022-07-29T23:36:03;5.43;;;5.03;;
9819;SDS011;4949;48.482;9.206;2022-07-29T23:41:06;5.90;;;5.40;;
9819;SDS011;4949;48.482;9.206;2022-07-29T23:46:08;5.90;;;4.93;;
9819;SDS011;4949;48.482;9.206;2022-07-29T23:51:13;5.37;;;4.70;;
9819;SDS011;4949;48.482;9.206;2022-07-29T23:56:16;6.60;;;4.80;;
